sensor_id;sensor_type;location;lat;lon;timestamp;temperature;humidity
5592;DHT22;2818;49.790;9.958;2022-10-22T00:00:00;13.80;99.90
5592;DHT22;2818;49.790;9.958;2022-10-22T00:02:27;13.80;99.90
5592;DHT22;2818;49.790;9.958;2022-10-22T00:04:54;13.80;99.90
5592;DHT22;2818;49.790;9.958;2022-10-22T00:07:23;13.90;99.90
5592;DHT22;2818;49.790;9.958;2022-10-22T00:09:50;13.80;99.90
5592;DHT22;2818;49.790;9.958;2022-10-22T00:12:17;13.90;99.90
5592;DHT22;2818;49.790;9.958;2022-10-22T00:14:44;13.90;99.90
5592;DHT22;2818;49.790;9.958;2022-10-22T00:17:11;13.90;99.90
5592;DHT22;2818;49.790;9.958;2022-10-22T00:19:39;13.90;99.90
5592;DHT22;2818;49.790;9.958;2022-10-22T00:22:06;13.90;99.90
5592;DHT22;2818;49.790;9.958;2022-10-22T00:24:35;13.80;99.90
5592;DHT22;2818;49.790;9.958;2022-10-22T00:27:03;13.90;99.90
5592;DHT22;2818;49.790;9.958;2022-10-22T00:29:29;13.90;99.90
5592;DHT22;2818;49.790;9.958;2022-10-22T00:31:56;13.90;99.90
5592;DHT22;2818;49.790;9.958;2022-10-22T00:34:24;13.90;99.90
5592;DHT22;2818;49.790;9.958;2022-10-22T00:36:51;13.90;99.90
5592;DHT22;2818;49.790;9.958;2022-10-22T00:39:20;13.90;99.90
5592;DHT22;2818;49.790;9.958;2022-10-22T00:41:48;13.90;99.90
5592;DHT22;2818;49.790;9.958;2022-10-22T00:47:22;13.90;99.90
5592;DHT22;2818;49.790;9.958;2022-10-22T00:49:51;13.90;99.90
5592;DHT22;2818;49.790;9.958;2022-10-22T00:52:19;13.90;99.90
5592;DHT22;2818;49.790;9.958;2022-10-22T00:54:47;13.90;99.90
5592;DHT22;2818;49.790;9.958;2022-10-22T00:57:15;13.90;99.90
5592;DHT22;2818;49.790;9.958;2022-10-22T00:59:42;13.90;99.90
5592;DHT22;2818;49.790;9.958;2022-10-22T01:02:09;13.90;99.90
5592;DHT22;2818;49.790;9.958;2022-10-22T01:04:36;13.90;99.90
5592;DHT22;2818;49.790;9.958;2022-10-22T01:07:03;13.90;99.90
5592;DHT22;2818;49.790;9.958;2022-10-22T01:15:21;13.90;99.90
5592;DHT22;2818;49.790;9.958;2022-10-22T01:23:06;14.00;99.90
5592;DHT22;2818;49.790;9.958;2022-10-22T01:31:20;14.00;99.90
5592;DHT22;2818;49.790;9.958;2022-10-22T01:33:50;14.00;99.90
5592;DHT22;2818;49.790;9.958;2022-10-22T01:36:19;14.10;99.90
5592;DHT22;2818;49.790;9.958;2022-10-22T01:38:47;14.10;99.90
5592;DHT22;2818;49.790;9.958;2022-10-22T01:41:15;14.00;99.90
5592;DHT22;2818;49.790;9.958;2022-10-22T01:43:42;14.00;99.90
5592;DHT22;2818;49.790;9.958;2022-10-22T01:46:09;14.00;99.90
5592;DHT22;2818;49.790;9.958;2022-10-22T01:54:26;13.80;99.90
5592;DHT22;2818;49.790;9.958;2022-10-22T01:57:25;13.80;99.90
5592;DHT22;2818;49.790;9.958;2022-10-22T02:02:35;13.60;99.90
5592;DHT22;2818;49.790;9.958;2022-10-22T02:05:11;13.60;99.90
5592;DHT22;2818;49.790;9.958;2022-10-22T02:07:43;13.50;99.90
5592;DHT22;2818;49.790;9.958;2022-10-22T02:10:13;13.50;99.90
5592;DHT22;2818;49.790;9.958;2022-10-22T02:12:42;13.50;99.90
5592;DHT22;2818;49.790;9.958;2022-10-22T02:15:11;13.50;99.90
5592;DHT22;2818;49.790;9.958;2022-10-22T02:17:42;13.50;99.90
5592;DHT22;2818;49.790;9.958;2022-10-22T02:22:41;13.50;99.90
5592;DHT22;2818;49.790;9.958;2022-10-22T02:25:10;13.50;99.90
5592;DHT22;2818;49.790;9.958;2022-10-22T02:27:45;13.50;99.90
5592;DHT22;2818;49.790;9.958;2022-10-22T02:30:16;13.60;99.90
5592;DHT22;2818;49.790;9.958;2022-10-22T02:35:23;13.60;99.90
5592;DHT22;2818;49.790;9.958;2022-10-22T02:37:52;13.60;99.90
5592;DHT22;2818;49.790;9.958;2022-10-22T02:40:21;13.70;99.90
5592;DHT22;2818;49.790;9.958;2022-10-22T02:42:49;13.70;99.90
5592;DHT22;2818;49.790;9.958;2022-10-22T02:45:18;13.70;99.90
5592;DHT22;2818;49.790;9.958;2022-10-22T02:47:45;13.70;99.90
5592;DHT22;2818;49.790;9.958;2022-10-22T02:50:13;13.80;99.90
5592;DHT22;2818;49.790;9.958;2022-10-22T02:52:39;13.80;99.90
5592;DHT22;2818;49.790;9.958;2022-10-22T02:55:07;13.80;99.90
5592;DHT22;2818;49.790;9.958;2022-10-22T02:57:34;13.80;99.90
5592;DHT22;2818;49.790;9.958;2022-10-22T03:00:01;13.80;99.90
5592;DHT22;2818;49.790;9.958;2022-10-22T03:02:28;13.80;99.90
5592;DHT22;2818;49.790;9.958;2022-10-22T03:04:54;13.90;99.90
5592;DHT22;2818;49.790;9.958;2022-10-22T03:07:21;13.80;99.90
5592;DHT22;2818;49.790;9.958;2022-10-22T03:09:48;13.90;99.90
5592;DHT22;2818;49.790;9.958;2022-10-22T03:12:15;13.90;99.90
5592;DHT22;2818;49.790;9.958;2022-10-22T03:14:42;13.80;99.90
5592;DHT22;2818;49.790;9.958;2022-10-22T03:17:09;13.90;99.90
5592;DHT22;2818;49.790;9.958;2022-10-22T03:19:36;13.80;99.90
5592;DHT22;2818;49.790;9.958;2022-10-22T03:22:11;13.90;99.90
5592;DHT22;2818;49.790;9.958;2022-10-22T03:24:41;13.90;99.90
5592;DHT22;2818;49.790;9.958;2022-10-22T03:27:09;13.90;99.90
5592;DHT22;2818;49.790;9.958;2022-10-22T03:29:37;13.90;99.90
5592;DHT22;2818;49.790;9.958;2022-10-22T03:32:06;13.90;99.90
5592;DHT22;2818;49.790;9.958;2022-10-22T03:34:33;13.90;99.90
5592;DHT22;2818;49.790;9.958;2022-10-22T03:37:00;13.90;99.90
5592;DHT22;2818;49.790;9.958;2022-10-22T03:39:30;13.90;99.90
5592;DHT22;2818;49.790;9.958;2022-10-22T03:41:59;13.90;99.90
5592;DHT22;2818;49.790;9.958;2022-10-22T03:44:26;13.90;99.90
5592;DHT22;2818;49.790;9.958;2022-10-22T03:46:53;13.80;99.90
5592;DHT22;2818;49.790;9.958;2022-10-22T03:49:27;13.80;99.90
5592;DHT22;2818;49.790;9.958;2022-10-22T03:51:54;13.80;99.90
5592;DHT22;2818;49.790;9.958;2022-10-22T03:54:21;13.80;99.90
5592;DHT22;2818;49.790;9.958;2022-10-22T03:56:48;13.80;99.90
5592;DHT22;2818;49.790;9.958;2022-10-22T03:59:15;13.80;99.90
5592;DHT22;2818;49.790;9.958;2022-10-22T04:01:42;13.80;99.90
5592;DHT22;2818;49.790;9.958;2022-10-22T04:04:09;13.80;99.90
5592;DHT22;2818;49.790;9.958;2022-10-22T04:06:36;13.90;99.90
5592;DHT22;2818;49.790;9.958;2022-10-22T04:09:03;13.80;99.90
5592;DHT22;2818;49.790;9.958;2022-10-22T04:11:30;13.80;99.90
5592;DHT22;2818;49.790;9.958;2022-10-22T04:13:56;13.90;99.90
5592;DHT22;2818;49.790;9.958;2022-10-22T04:16:23;13.90;99.90
5592;DHT22;2818;49.790;9.958;2022-10-22T04:18:55;13.90;99.90
5592;DHT22;2818;49.790;9.958;2022-10-22T04:21:23;13.90;99.90
5592;DHT22;2818;49.790;9.958;2022-10-22T04:23:51;13.90;99.90
5592;DHT22;2818;49.790;9.958;2022-10-22T04:26:19;13.90;99.90
5592;DHT22;2818;49.790;9.958;2022-10-22T04:28:47;13.90;99.90
5592;DHT22;2818;49.790;9.958;2022-10-22T04:31:17;13.90;99.90
5592;DHT22;2818;49.790;9.958;2022-10-22T04:33:45;13.90;99.90
5592;DHT22;2818;49.790;9.958;2022-10-22T04:36:17;13.90;99.90
5592;DHT22;2818;49.790;9.958;2022-10-22T04:38:45;13.90;99.90
5592;DHT22;2818;49.790;9.958;2022-10-22T04:41:16;13.90;99.90
5592;DHT22;2818;49.790;9.958;2022-10-22T04:43:43;13.90;99.90
5592;DHT22;2818;49.790;9.958;2022-10-22T04:46:11;13.90;99.90
5592;DHT22;2818;49.790;9.958;2022-10-22T04:48:40;13.90;99.90
5592;DHT22;2818;49.790;9.958;2022-10-22T04:51:10;13.90;99.90
5592;DHT22;2818;49.790;9.958;2022-10-22T04:53:38;13.90;99.90
5592;DHT22;2818;49.790;9.958;2022-10-22T04:56:17;13.90;99.90
5592;DHT22;2818;49.790;9.958;2022-10-22T04:58:49;13.90;99.90
5592;DHT22;2818;49.790;9.958;2022-10-22T05:01:19;13.90;99.90
5592;DHT22;2818;49.790;9.958;2022-10-22T05:03:50;13.90;99.90
5592;DHT22;2818;49.790;9.958;2022-10-22T05:06:17;13.90;99.90
5592;DHT22;2818;49.790;9.958;2022-10-22T05:08:47;13.90;99.90
5592;DHT22;2818;49.790;9.958;2022-10-22T05:11:19;13.90;99.90
5592;DHT22;2818;49.790;9.958;2022-10-22T05:13:47;13.90;99.90
5592;DHT22;2818;49.790;9.958;2022-10-22T05:16:14;13.90;99.90
5592;DHT22;2818;49.790;9.958;2022-10-22T05:18:43;13.90;99.90
5592;DHT22;2818;49.790;9.958;2022-10-22T05:21:13;13.90;99.90
5592;DHT22;2818;49.790;9.958;2022-10-22T05:23:40;13.90;99.90
5592;DHT22;2818;49.790;9.958;2022-10-22T05:26:09;14.00;99.90
5592;DHT22;2818;49.790;9.958;2022-10-22T05:28:36;14.00;99.90
5592;DHT22;2818;49.790;9.958;2022-10-22T05:31:04;14.00;99.90
5592;DHT22;2818;49.790;9.958;2022-10-22T05:33:32;14.00;99.90
5592;DHT22;2818;49.790;9.958;2022-10-22T05:35:59;14.00;99.90
5592;DHT22;2818;49.790;9.958;2022-10-22T05:38:26;14.00;99.90
5592;DHT22;2818;49.790;9.958;2022-10-22T05:41:11;14.00;99.90
5592;DHT22;2818;49.790;9.958;2022-10-22T05:43:39;13.90;99.90
5592;DHT22;2818;49.790;9.958;2022-10-22T05:46:09;14.00;99.90
5592;DHT22;2818;49.790;9.958;2022-10-22T05:48:37;14.00;99.90
5592;DHT22;2818;49.790;9.958;2022-10-22T05:51:07;14.00;99.90
5592;DHT22;2818;49.790;9.958;2022-10-22T05:53:37;14.00;99.90
5592;DHT22;2818;49.790;9.958;2022-10-22T05:56:10;14.00;99.90
5592;DHT22;2818;49.790;9.958;2022-10-22T05:58:38;14.00;99.90
5592;DHT22;2818;49.790;9.958;2022-10-22T06:01:12;14.00;99.90
5592;DHT22;2818;49.790;9.958;2022-10-22T06:03:40;14.00;99.90
5592;DHT22;2818;49.790;9.958;2022-10-22T06:06:34;13.90;99.90
5592;DHT22;2818;49.790;9.958;2022-10-22T06:09:06;14.00;99.90
5592;DHT22;2818;49.790;9.958;2022-10-22T06:11:37;13.90;99.90
5592;DHT22;2818;49.790;9.958;2022-10-22T06:14:04;13.90;99.90
5592;DHT22;2818;49.790;9.958;2022-10-22T06:16:31;13.90;99.90
5592;DHT22;2818;49.790;9.958;2022-10-22T06:18:59;13.90;99.90
5592;DHT22;2818;49.790;9.958;2022-10-22T06:21:29;13.90;99.90
5592;DHT22;2818;49.790;9.958;2022-10-22T06:23:58;13.80;99.90
5592;DHT22;2818;49.790;9.958;2022-10-22T06:26:25;13.80;99.90
5592;DHT22;2818;49.790;9.958;2022-10-22T06:28:53;13.70;99.90
5592;DHT22;2818;49.790;9.958;2022-10-22T06:31:21;13.80;99.90
5592;DHT22;2818;49.790;9.958;2022-10-22T06:33:48;13.80;99.90
5592;DHT22;2818;49.790;9.958;2022-10-22T06:36:18;13.80;99.90
5592;DHT22;2818;49.790;9.958;2022-10-22T06:38:45;13.70;99.90
5592;DHT22;2818;49.790;9.958;2022-10-22T06:41:15;13.80;99.90
5592;DHT22;2818;49.790;9.958;2022-10-22T06:43:43;13.80;99.90
5592;DHT22;2818;49.790;9.958;2022-10-22T06:46:12;13.70;99.90
5592;DHT22;2818;49.790;9.958;2022-10-22T06:48:49;13.80;99.90
5592;DHT22;2818;49.790;9.958;2022-10-22T06:51:16;13.80;99.90
5592;DHT22;2818;49.790;9.958;2022-10-22T06:53:44;13.80;99.90
5592;DHT22;2818;49.790;9.958;2022-10-22T06:56:17;13.90;99.90
5592;DHT22;2818;49.790;9.958;2022-10-22T06:58:52;13.90;99.90
5592;DHT22;2818;49.790;9.958;2022-10-22T07:01:22;13.90;99.90
5592;DHT22;2818;49.790;9.958;2022-10-22T07:03:50;13.90;99.90
5592;DHT22;2818;49.790;9.958;2022-10-22T07:06:18;14.00;99.90
5592;DHT22;2818;49.790;9.958;2022-10-22T07:08:45;13.90;99.90
5592;DHT22;2818;49.790;9.958;2022-10-22T07:11:18;14.00;99.90
5592;DHT22;2818;49.790;9.958;2022-10-22T07:13:46;14.00;99.90
5592;DHT22;2818;49.790;9.958;2022-10-22T07:16:14;14.00;99.90
5592;DHT22;2818;49.790;9.958;2022-10-22T07:18:42;13.90;99.90
5592;DHT22;2818;49.790;9.958;2022-10-22T07:21:10;13.90;99.90
5592;DHT22;2818;49.790;9.958;2022-10-22T07:23:37;13.90;99.90
5592;DHT22;2818;49.790;9.958;2022-10-22T07:26:06;13.90;99.90
5592;DHT22;2818;49.790;9.958;2022-10-22T07:28:34;13.90;99.90
5592;DHT22;2818;49.790;9.958;2022-10-22T07:31:02;13.90;99.90
5592;DHT22;2818;49.790;9.958;2022-10-22T07:33:29;13.90;99.90
5592;DHT22;2818;49.790;9.958;2022-10-22T07:36:00;13.80;99.90
5592;DHT22;2818;49.790;9.958;2022-10-22T07:38:28;13.80;99.90
5592;DHT22;2818;49.790;9.958;2022-10-22T07:40:55;13.70;99.90
5592;DHT22;2818;49.790;9.958;2022-10-22T07:43:22;13.80;99.90
5592;DHT22;2818;49.790;9.958;2022-10-22T07:45:49;13.80;99.90
5592;DHT22;2818;49.790;9.958;2022-10-22T07:48:16;13.80;99.90
5592;DHT22;2818;49.790;9.958;2022-10-22T07:50:43;13.80;99.90
5592;DHT22;2818;49.790;9.958;2022-10-22T07:53:15;13.90;99.90
5592;DHT22;2818;49.790;9.958;2022-10-22T07:55:42;13.90;99.90
5592;DHT22;2818;49.790;9.958;2022-10-22T07:58:08;14.00;99.90
5592;DHT22;2818;49.790;9.958;2022-10-22T08:00:35;14.10;99.90
5592;DHT22;2818;49.790;9.958;2022-10-22T08:03:03;14.10;99.90
5592;DHT22;2818;49.790;9.958;2022-10-22T08:05:30;14.20;99.90
5592;DHT22;2818;49.790;9.958;2022-10-22T08:07:57;14.30;99.90
5592;DHT22;2818;49.790;9.958;2022-10-22T08:10:23;14.40;99.90
5592;DHT22;2818;49.790;9.958;2022-10-22T08:12:50;14.50;99.90
5592;DHT22;2818;49.790;9.958;2022-10-22T08:15:17;14.60;99.90
5592;DHT22;2818;49.790;9.958;2022-10-22T08:17:44;14.70;99.90
5592;DHT22;2818;49.790;9.958;2022-10-22T08:20:11;14.80;99.90
5592;DHT22;2818;49.790;9.958;2022-10-22T08:22:38;14.90;99.90
5592;DHT22;2818;49.790;9.958;2022-10-22T08:25:05;15.00;99.90
5592;DHT22;2818;49.790;9.958;2022-10-22T08:27:32;15.20;99.90
5592;DHT22;2818;49.790;9.958;2022-10-22T08:29:59;15.50;93.80
5592;DHT22;2818;49.790;9.958;2022-10-22T08:32:26;15.80;17.80
5592;DHT22;2818;49.790;9.958;2022-10-22T08:34:57;16.30;1.00
5592;DHT22;2818;49.790;9.958;2022-10-22T08:37:24;17.60;1.00
5592;DHT22;2818;49.790;9.958;2022-10-22T08:39:51;19.60;99.90
5592;DHT22;2818;49.790;9.958;2022-10-22T08:43:20;22.00;1.00
5592;DHT22;2818;49.790;9.958;2022-10-22T08:45:25;24.00;1.00
5592;DHT22;2818;49.790;9.958;2022-10-22T08:50:48;27.90;99.90
5592;DHT22;2818;49.790;9.958;2022-10-22T08:53:18;28.80;99.90
5592;DHT22;2818;49.790;9.958;2022-10-22T08:55:48;28.60;99.90
5592;DHT22;2818;49.790;9.958;2022-10-22T08:58:40;29.90;99.90
5592;DHT22;2818;49.790;9.958;2022-10-22T09:01:28;30.60;99.90
5592;DHT22;2818;49.790;9.958;2022-10-22T09:04:04;32.00;99.90
5592;DHT22;2818;49.790;9.958;2022-10-22T09:06:35;32.90;99.90
5592;DHT22;2818;49.790;9.958;2022-10-22T09:09:14;33.20;93.80
5592;DHT22;2818;49.790;9.958;2022-10-22T09:11:44;33.20;74.90
5592;DHT22;2818;49.790;9.958;2022-10-22T09:14:15;33.50;58.10
5592;DHT22;2818;49.790;9.958;2022-10-22T09:22:49;32.50;29.70
5592;DHT22;2818;49.790;9.958;2022-10-22T09:25:20;32.40;25.50
5592;DHT22;2818;49.790;9.958;2022-10-22T09:27:49;31.90;18.30
5592;DHT22;2818;49.790;9.958;2022-10-22T09:30:21;31.60;15.10
5592;DHT22;2818;49.790;9.958;2022-10-22T09:33:01;32.00;15.60
5592;DHT22;2818;49.790;9.958;2022-10-22T09:35:43;32.50;15.40
5592;DHT22;2818;49.790;9.958;2022-10-22T09:38:12;32.80;13.90
5592;DHT22;2818;49.790;9.958;2022-10-22T09:40:50;33.40;9.50
5592;DHT22;2818;49.790;9.958;2022-10-22T09:43:18;34.30;10.50
5592;DHT22;2818;49.790;9.958;2022-10-22T09:45:46;34.60;5.80
5592;DHT22;2818;49.790;9.958;2022-10-22T09:53:25;33.20;1.00
5592;DHT22;2818;49.790;9.958;2022-10-22T09:55:58;32.80;1.00
5592;DHT22;2818;49.790;9.958;2022-10-22T09:58:26;32.20;1.00
5592;DHT22;2818;49.790;9.958;2022-10-22T10:00:59;31.50;1.00
5592;DHT22;2818;49.790;9.958;2022-10-22T10:03:30;31.20;1.00
5592;DHT22;2818;49.790;9.958;2022-10-22T10:05:59;31.30;1.00
5592;DHT22;2818;49.790;9.958;2022-10-22T10:08:32;31.50;1.00
5592;DHT22;2818;49.790;9.958;2022-10-22T10:11:05;31.30;1.00
5592;DHT22;2818;49.790;9.958;2022-10-22T10:19:13;31.80;1.00
5592;DHT22;2818;49.790;9.958;2022-10-22T10:22:21;31.80;1.00
5592;DHT22;2818;49.790;9.958;2022-10-22T10:27:48;31.40;1.00
5592;DHT22;2818;49.790;9.958;2022-10-22T10:30:21;30.40;1.00
5592;DHT22;2818;49.790;9.958;2022-10-22T10:35:28;28.90;1.00
5592;DHT22;2818;49.790;9.958;2022-10-22T10:44:14;27.40;1.00
5592;DHT22;2818;49.790;9.958;2022-10-22T10:49:17;25.60;1.00
5592;DHT22;2818;49.790;9.958;2022-10-22T10:57:32;23.00;1.00
5592;DHT22;2818;49.790;9.958;2022-10-22T11:00:17;22.20;99.90
5592;DHT22;2818;49.790;9.958;2022-10-22T11:05:58;21.70;99.90
5592;DHT22;2818;49.790;9.958;2022-10-22T11:08:39;22.00;99.90
5592;DHT22;2818;49.790;9.958;2022-10-22T11:11:21;22.60;99.90
5592;DHT22;2818;49.790;9.958;2022-10-22T11:14:04;22.80;99.90
5592;DHT22;2818;49.790;9.958;2022-10-22T11:16:38;23.30;99.90
5592;DHT22;2818;49.790;9.958;2022-10-22T11:21:44;24.30;99.90
5592;DHT22;2818;49.790;9.958;2022-10-22T11:24:18;24.30;99.90
5592;DHT22;2818;49.790;9.958;2022-10-22T11:29:16;24.50;99.90
5592;DHT22;2818;49.790;9.958;2022-10-22T11:31:46;25.30;97.90
5592;DHT22;2818;49.790;9.958;2022-10-22T11:37:05;27.10;74.30
5592;DHT22;2818;49.790;9.958;2022-10-22T11:39:33;27.80;27.80
5592;DHT22;2818;49.790;9.958;2022-10-22T11:42:04;27.80;17.40
5592;DHT22;2818;49.790;9.958;2022-10-22T11:44:45;28.00;8.90
5592;DHT22;2818;49.790;9.958;2022-10-22T11:47:25;27.00;9.20
5592;DHT22;2818;49.790;9.958;2022-10-22T11:49:56;26.80;13.80
5592;DHT22;2818;49.790;9.958;2022-10-22T11:52:52;27.30;21.20
5592;DHT22;2818;49.790;9.958;2022-10-22T11:55:32;27.50;15.10
5592;DHT22;2818;49.790;9.958;2022-10-22T11:58:05;27.10;14.00
5592;DHT22;2818;49.790;9.958;2022-10-22T12:00:48;26.60;17.20
5592;DHT22;2818;49.790;9.958;2022-10-22T12:03:42;25.40;25.00
5592;DHT22;2818;49.790;9.958;2022-10-22T12:08:51;25.40;45.80
5592;DHT22;2818;49.790;9.958;2022-10-22T12:11:45;25.90;49.10
5592;DHT22;2818;49.790;9.958;2022-10-22T12:14:24;26.20;34.80
5592;DHT22;2818;49.790;9.958;2022-10-22T12:19:34;24.40;32.60
5592;DHT22;2818;49.790;9.958;2022-10-22T12:22:23;24.00;56.70
5592;DHT22;2818;49.790;9.958;2022-10-22T12:24:54;23.20;64.00
5592;DHT22;2818;49.790;9.958;2022-10-22T12:27:32;23.50;90.60
5592;DHT22;2818;49.790;9.958;2022-10-22T12:30:00;23.70;90.20
5592;DHT22;2818;49.790;9.958;2022-10-22T12:32:38;23.60;95.40
5592;DHT22;2818;49.790;9.958;2022-10-22T12:35:14;23.30;99.90
5592;DHT22;2818;49.790;9.958;2022-10-22T12:37:41;22.50;99.90
5592;DHT22;2818;49.790;9.958;2022-10-22T12:42:48;22.60;99.90
5592;DHT22;2818;49.790;9.958;2022-10-22T12:45:15;22.40;99.90
5592;DHT22;2818;49.790;9.958;2022-10-22T12:48:21;22.20;99.90
5592;DHT22;2818;49.790;9.958;2022-10-22T12:50:54;22.00;99.90
5592;DHT22;2818;49.790;9.958;2022-10-22T12:53:33;22.30;99.90
5592;DHT22;2818;49.790;9.958;2022-10-22T12:56:05;22.80;99.90
5592;DHT22;2818;49.790;9.958;2022-10-22T12:59:03;23.10;99.90
5592;DHT22;2818;49.790;9.958;2022-10-22T13:01:33;23.40;99.90
5592;DHT22;2818;49.790;9.958;2022-10-22T13:04:40;23.60;99.90
5592;DHT22;2818;49.790;9.958;2022-10-22T13:09:57;23.40;99.90
5592;DHT22;2818;49.790;9.958;2022-10-22T13:12:26;23.50;99.90
5592;DHT22;2818;49.790;9.958;2022-10-22T13:14:53;23.60;99.90
5592;DHT22;2818;49.790;9.958;2022-10-22T13:20:14;23.10;99.90
5592;DHT22;2818;49.790;9.958;2022-10-22T13:23:02;22.60;99.90
5592;DHT22;2818;49.790;9.958;2022-10-22T13:30:34;23.10;99.90
5592;DHT22;2818;49.790;9.958;2022-10-22T13:35:45;23.10;99.90
5592;DHT22;2818;49.790;9.958;2022-10-22T13:38:16;22.80;99.90
5592;DHT22;2818;49.790;9.958;2022-10-22T13:40:44;22.60;99.90
5592;DHT22;2818;49.790;9.958;2022-10-22T13:43:11;22.10;99.90
5592;DHT22;2818;49.790;9.958;2022-10-22T13:45:38;21.90;1.00
5592;DHT22;2818;49.790;9.958;2022-10-22T13:48:05;21.80;1.00
5592;DHT22;2818;49.790;9.958;2022-10-22T13:50:35;21.60;1.00
5592;DHT22;2818;49.790;9.958;2022-10-22T13:53:01;21.40;22.80
5592;DHT22;2818;49.790;9.958;2022-10-22T13:55:29;21.40;33.80
5592;DHT22;2818;49.790;9.958;2022-10-22T13:58:10;21.40;26.60
5592;DHT22;2818;49.790;9.958;2022-10-22T14:00:40;21.50;19.60
5592;DHT22;2818;49.790;9.958;2022-10-22T14:03:13;21.60;1.00
5592;DHT22;2818;49.790;9.958;2022-10-22T14:05:41;21.60;1.00
5592;DHT22;2818;49.790;9.958;2022-10-22T14:08:14;21.50;1.00
5592;DHT22;2818;49.790;9.958;2022-10-22T14:10:41;21.60;1.00
5592;DHT22;2818;49.790;9.958;2022-10-22T14:13:13;21.50;1.00
5592;DHT22;2818;49.790;9.958;2022-10-22T14:15:42;21.20;1.00
5592;DHT22;2818;49.790;9.958;2022-10-22T14:18:14;21.00;44.70
5592;DHT22;2818;49.790;9.958;2022-10-22T14:20:41;20.90;99.90
5592;DHT22;2818;49.790;9.958;2022-10-22T14:23:18;20.80;1.00
5592;DHT22;2818;49.790;9.958;2022-10-22T14:25:46;20.60;99.90
5592;DHT22;2818;49.790;9.958;2022-10-22T14:28:13;20.40;1.00
5592;DHT22;2818;49.790;9.958;2022-10-22T14:30:40;20.30;1.00
5592;DHT22;2818;49.790;9.958;2022-10-22T14:33:14;20.20;1.00
5592;DHT22;2818;49.790;9.958;2022-10-22T14:35:42;20.50;1.00
5592;DHT22;2818;49.790;9.958;2022-10-22T14:38:10;20.90;99.90
5592;DHT22;2818;49.790;9.958;2022-10-22T14:40:38;21.10;40.90
5592;DHT22;2818;49.790;9.958;2022-10-22T14:43:05;21.40;1.00
5592;DHT22;2818;49.790;9.958;2022-10-22T14:45:32;21.50;1.00
5592;DHT22;2818;49.790;9.958;2022-10-22T14:47:59;21.60;1.00
5592;DHT22;2818;49.790;9.958;2022-10-22T14:50:26;21.70;1.00
5592;DHT22;2818;49.790;9.958;2022-10-22T14:52:53;21.60;1.00
5592;DHT22;2818;49.790;9.958;2022-10-22T14:55:22;21.60;1.00
5592;DHT22;2818;49.790;9.958;2022-10-22T14:57:49;21.50;1.00
5592;DHT22;2818;49.790;9.958;2022-10-22T15:00:17;21.30;1.00
5592;DHT22;2818;49.790;9.958;2022-10-22T15:02:45;21.10;1.00
5592;DHT22;2818;49.790;9.958;2022-10-22T15:05:12;21.20;1.00
5592;DHT22;2818;49.790;9.958;2022-10-22T15:07:39;21.20;1.00
5592;DHT22;2818;49.790;9.958;2022-10-22T15:10:07;21.10;1.00
5592;DHT22;2818;49.790;9.958;2022-10-22T15:12:34;21.10;1.00
5592;DHT22;2818;49.790;9.958;2022-10-22T15:15:02;21.10;1.00
5592;DHT22;2818;49.790;9.958;2022-10-22T15:17:29;21.00;1.00
5592;DHT22;2818;49.790;9.958;2022-10-22T15:19:56;21.00;99.90
5592;DHT22;2818;49.790;9.958;2022-10-22T15:22:26;21.10;99.90
5592;DHT22;2818;49.790;9.958;2022-10-22T15:24:54;20.90;1.00
5592;DHT22;2818;49.790;9.958;2022-10-22T15:27:20;20.80;1.00
5592;DHT22;2818;49.790;9.958;2022-10-22T15:29:47;20.70;1.00
5592;DHT22;2818;49.790;9.958;2022-10-22T15:32:14;20.70;1.00
5592;DHT22;2818;49.790;9.958;2022-10-22T15:34:41;20.60;1.00
5592;DHT22;2818;49.790;9.958;2022-10-22T15:37:10;20.50;1.00
5592;DHT22;2818;49.790;9.958;2022-10-22T15:39:41;20.40;75.90
5592;DHT22;2818;49.790;9.958;2022-10-22T15:42:08;20.30;99.90
5592;DHT22;2818;49.790;9.958;2022-10-22T15:44:36;20.30;99.90
5592;DHT22;2818;49.790;9.958;2022-10-22T15:47:03;20.10;99.90
5592;DHT22;2818;49.790;9.958;2022-10-22T15:49:30;20.00;99.90
5592;DHT22;2818;49.790;9.958;2022-10-22T15:51:57;19.90;99.90
5592;DHT22;2818;49.790;9.958;2022-10-22T15:54:26;19.70;1.00
5592;DHT22;2818;49.790;9.958;2022-10-22T15:56:55;19.60;1.00
5592;DHT22;2818;49.790;9.958;2022-10-22T15:59:22;19.50;1.00
5592;DHT22;2818;49.790;9.958;2022-10-22T16:01:50;19.40;99.90
5592;DHT22;2818;49.790;9.958;2022-10-22T16:04:17;19.30;99.90
5592;DHT22;2818;49.790;9.958;2022-10-22T16:06:47;19.10;1.00
5592;DHT22;2818;49.790;9.958;2022-10-22T16:09:19;19.00;1.00
5592;DHT22;2818;49.790;9.958;2022-10-22T16:11:47;18.90;99.90
5592;DHT22;2818;49.790;9.958;2022-10-22T16:14:15;18.80;99.90
5592;DHT22;2818;49.790;9.958;2022-10-22T16:16:45;18.70;1.00
5592;DHT22;2818;49.790;9.958;2022-10-22T16:19:18;18.60;27.10
5592;DHT22;2818;49.790;9.958;2022-10-22T16:21:48;18.50;99.90
5592;DHT22;2818;49.790;9.958;2022-10-22T16:24:16;18.40;1.00
5592;DHT22;2818;49.790;9.958;2022-10-22T16:26:43;18.30;99.90
5592;DHT22;2818;49.790;9.958;2022-10-22T16:29:10;18.30;1.00
5592;DHT22;2818;49.790;9.958;2022-10-22T16:31:39;18.20;99.90
5592;DHT22;2818;49.790;9.958;2022-10-22T16:34:06;18.10;1.00
5592;DHT22;2818;49.790;9.958;2022-10-22T16:36:33;18.10;99.90
5592;DHT22;2818;49.790;9.958;2022-10-22T16:39:02;18.00;99.90
5592;DHT22;2818;49.790;9.958;2022-10-22T16:41:29;17.90;99.90
5592;DHT22;2818;49.790;9.958;2022-10-22T16:44:03;17.80;49.90
5592;DHT22;2818;49.790;9.958;2022-10-22T16:46:31;17.70;1.00
5592;DHT22;2818;49.790;9.958;2022-10-22T16:48:59;17.70;1.00
5592;DHT22;2818;49.790;9.958;2022-10-22T16:51:27;17.60;1.00
5592;DHT22;2818;49.790;9.958;2022-10-22T16:53:55;17.60;99.90
5592;DHT22;2818;49.790;9.958;2022-10-22T16:56:23;17.50;1.00
5592;DHT22;2818;49.790;9.958;2022-10-22T16:58:52;17.50;1.00
5592;DHT22;2818;49.790;9.958;2022-10-22T17:01:21;17.40;1.00
5592;DHT22;2818;49.790;9.958;2022-10-22T17:03:48;17.40;16.80
5592;DHT22;2818;49.790;9.958;2022-10-22T17:06:15;17.30;99.90
5592;DHT22;2818;49.790;9.958;2022-10-22T17:08:42;17.20;99.90
5592;DHT22;2818;49.790;9.958;2022-10-22T17:11:14;17.20;99.90
5592;DHT22;2818;49.790;9.958;2022-10-22T17:13:48;17.20;99.90
5592;DHT22;2818;49.790;9.958;2022-10-22T17:16:18;17.10;99.90
5592;DHT22;2818;49.790;9.958;2022-10-22T17:18:46;17.10;1.00
5592;DHT22;2818;49.790;9.958;2022-10-22T17:21:13;17.10;1.00
5592;DHT22;2818;49.790;9.958;2022-10-22T17:23:41;17.10;1.00
5592;DHT22;2818;49.790;9.958;2022-10-22T17:26:16;17.10;1.00
5592;DHT22;2818;49.790;9.958;2022-10-22T17:28:43;17.00;1.00
5592;DHT22;2818;49.790;9.958;2022-10-22T17:33:43;17.00;1.00
5592;DHT22;2818;49.790;9.958;2022-10-22T17:36:10;17.00;1.00
5592;DHT22;2818;49.790;9.958;2022-10-22T17:38:39;16.90;1.00
5592;DHT22;2818;49.790;9.958;2022-10-22T17:41:08;16.90;1.00
5592;DHT22;2818;49.790;9.958;2022-10-22T17:43:40;16.80;1.00
5592;DHT22;2818;49.790;9.958;2022-10-22T17:46:08;16.80;1.00
5592;DHT22;2818;49.790;9.958;2022-10-22T17:48:39;16.80;1.00
5592;DHT22;2818;49.790;9.958;2022-10-22T17:51:07;16.70;1.00
5592;DHT22;2818;49.790;9.958;2022-10-22T17:53:34;16.70;1.00
5592;DHT22;2818;49.790;9.958;2022-10-22T17:56:02;16.60;1.00
5592;DHT22;2818;49.790;9.958;2022-10-22T17:58:32;16.60;1.00
5592;DHT22;2818;49.790;9.958;2022-10-22T18:00:59;16.50;1.00
5592;DHT22;2818;49.790;9.958;2022-10-22T18:03:26;16.50;1.00
5592;DHT22;2818;49.790;9.958;2022-10-22T18:05:53;16.40;1.00
5592;DHT22;2818;49.790;9.958;2022-10-22T18:08:21;16.30;1.00
5592;DHT22;2818;49.790;9.958;2022-10-22T18:10:51;16.30;1.00